EZY985 EGCC-EGPH
Flight info
| Callsign | EZY985 |
|---|---|
| Flight time | 0h 40m |
| Altitude | 22000 |
| Route | POL N601 INPIP |
| Aircraft | A320/M-SDE3FGHIRWY/LB1 |
Departure
| Time | 2026-04-25 11:17 |
|---|---|
| Airport | Manchester Airport (EGCC) |
Arrival
| Time | 2026-04-25 11:58 |
|---|---|
| Airport | Edinburgh Airport (EGPH) |
| Time | Latitude | Longitude | Altitude | Speed | Heading |
|---|---|---|---|---|---|
| 2026-04-25 10:50 | 53.36012 | -2.26934 | 255 ft | 0 kts | 314° |
| 2026-04-25 11:09 | 53.36003 | -2.26917 | 255 ft | 2 kts | 314° |
| 2026-04-25 11:10 | 53.35991 | -2.26896 | 255 ft | 2 kts | 314° |
| 2026-04-25 11:10 | 53.35987 | -2.26890 | 255 ft | 2 kts | 314° |
| 2026-04-25 11:10 | 53.35973 | -2.26865 | 255 ft | 0 kts | 339° |
| 2026-04-25 11:10 | 53.35964 | -2.26860 | 255 ft | 0 kts | 20° |
| 2026-04-25 11:11 | 53.35961 | -2.26861 | 255 ft | 0 kts | 32° |
| 2026-04-25 11:12 | 53.35974 | -2.26846 | 255 ft | 5 kts | 36° |
| 2026-04-25 11:12 | 53.35991 | -2.26778 | 255 ft | 8 kts | 97° |
| 2026-04-25 11:13 | 53.35979 | -2.26736 | 255 ft | 3 kts | 117° |
| 2026-04-25 11:13 | 53.35980 | -2.26657 | 255 ft | 13 kts | 64° |
| 2026-04-25 11:13 | 53.36055 | -2.26498 | 255 ft | 18 kts | 50° |
| 2026-04-25 11:13 | 53.36135 | -2.26332 | 255 ft | 18 kts | 51° |
| 2026-04-25 11:14 | 53.36213 | -2.26214 | 255 ft | 13 kts | 46° |
| 2026-04-25 11:14 | 53.36261 | -2.26112 | 255 ft | 9 kts | 60° |
| 2026-04-25 11:14 | 53.36268 | -2.26031 | 256 ft | 0 kts | 91° |
| 2026-04-25 11:15 | 53.36268 | -2.26023 | 255 ft | 5 kts | 91° |
| 2026-04-25 11:15 | 53.36288 | -2.25883 | 255 ft | 15 kts | 81° |
| 2026-04-25 11:16 | 53.36194 | -2.25796 | 254 ft | 0 kts | 229° |
| 2026-04-25 11:16 | 53.36158 | -2.25865 | 254 ft | 39 kts | 231° |
| 2026-04-25 11:16 | 53.35790 | -2.26633 | 264 ft | 127 kts | 231° |
| 2026-04-25 11:17 | 53.35080 | -2.28038 | 515 ft | 174 kts | 232° |
| 2026-04-25 11:17 | 53.34334 | -2.29699 | 1465 ft | 180 kts | 232° |
| 2026-04-25 11:17 | 53.33563 | -2.31335 | 2180 ft | 187 kts | 231° |
| 2026-04-25 11:17 | 53.32702 | -2.33146 | 2559 ft | 211 kts | 233° |
| 2026-04-25 11:18 | 53.32025 | -2.35466 | 3022 ft | 236 kts | 256° |
| 2026-04-25 11:18 | 53.31986 | -2.38324 | 3575 ft | 257 kts | 283° |
| 2026-04-25 11:18 | 53.32779 | -2.41036 | 4429 ft | 265 kts | 310° |
| 2026-04-25 11:18 | 53.34258 | -2.42879 | 5363 ft | 270 kts | 338° |
| 2026-04-25 11:19 | 53.36104 | -2.43453 | 6355 ft | 273 kts | 356° |
| 2026-04-25 11:19 | 53.38010 | -2.43606 | 7319 ft | 275 kts | 357° |
| 2026-04-25 11:19 | 53.39935 | -2.43811 | 8229 ft | 278 kts | 349° |
| 2026-04-25 11:19 | 53.41811 | -2.44683 | 9147 ft | 281 kts | 342° |
| 2026-04-25 11:20 | 53.43688 | -2.45674 | 10093 ft | 284 kts | 342° |
| 2026-04-25 11:20 | 53.45653 | -2.46164 | 10901 ft | 290 kts | 1° |
| 2026-04-25 11:20 | 53.47640 | -2.45481 | 11710 ft | 297 kts | 21° |
| 2026-04-25 11:20 | 53.49433 | -2.43644 | 12377 ft | 311 kts | 36° |
| 2026-04-25 11:21 | 53.51204 | -2.41334 | 12671 ft | 334 kts | 37° |
| 2026-04-25 11:21 | 53.53070 | -2.38841 | 13138 ft | 349 kts | 38° |
| 2026-04-25 11:21 | 53.54989 | -2.36260 | 13871 ft | 355 kts | 38° |
| 2026-04-25 11:21 | 53.56931 | -2.33652 | 14558 ft | 360 kts | 38° |
| 2026-04-25 11:22 | 53.58899 | -2.31016 | 15246 ft | 364 kts | 37° |
| 2026-04-25 11:22 | 53.60215 | -2.29257 | 15718 ft | 366 kts | 37° |
| 2026-04-25 11:22 | 53.62904 | -2.25669 | 16661 ft | 371 kts | 37° |
| 2026-04-25 11:22 | 53.64939 | -2.22956 | 17357 ft | 375 kts | 37° |
| 2026-04-25 11:23 | 53.66998 | -2.20213 | 18048 ft | 379 kts | 37° |
| 2026-04-25 11:23 | 53.69076 | -2.17448 | 18692 ft | 382 kts | 36° |
| 2026-04-25 11:23 | 53.71348 | -2.15098 | 19237 ft | 385 kts | 24° |
| 2026-04-25 11:23 | 53.73892 | -2.13657 | 19795 ft | 388 kts | 11° |
| 2026-04-25 11:24 | 53.76590 | -2.13224 | 20340 ft | 391 kts | 357° |
| 2026-04-25 11:24 | 53.79288 | -2.13834 | 20891 ft | 393 kts | 344° |
| 2026-04-25 11:24 | 53.81868 | -2.15406 | 21435 ft | 396 kts | 336° |
| 2026-04-25 11:24 | 53.84430 | -2.17178 | 21974 ft | 399 kts | 336° |
| 2026-04-25 11:25 | 53.87010 | -2.18953 | 22175 ft | 401 kts | 336° |
| 2026-04-25 11:25 | 53.89580 | -2.20711 | 22211 ft | 397 kts | 336° |
| 2026-04-25 11:25 | 53.92142 | -2.22459 | 22209 ft | 396 kts | 336° |
| 2026-04-25 11:25 | 53.94696 | -2.24210 | 22212 ft | 396 kts | 336° |
| 2026-04-25 11:26 | 53.97212 | -2.25943 | 22213 ft | 396 kts | 336° |
| 2026-04-25 11:26 | 53.99761 | -2.27697 | 22212 ft | 395 kts | 336° |
| 2026-04-25 11:26 | 54.02313 | -2.29451 | 22212 ft | 395 kts | 336° |
| 2026-04-25 11:26 | 54.04868 | -2.31208 | 22211 ft | 395 kts | 336° |
| 2026-04-25 11:27 | 54.07417 | -2.32965 | 22207 ft | 395 kts | 336° |
| 2026-04-25 11:27 | 54.09965 | -2.34727 | 22209 ft | 395 kts | 336° |
| 2026-04-25 11:27 | 54.12513 | -2.36498 | 22209 ft | 395 kts | 336° |
| 2026-04-25 11:27 | 54.14234 | -2.37697 | 22209 ft | 395 kts | 336° |
| 2026-04-25 11:28 | 54.17606 | -2.40042 | 22209 ft | 395 kts | 336° |
| 2026-04-25 11:28 | 54.20149 | -2.41811 | 22207 ft | 395 kts | 336° |
| 2026-04-25 11:28 | 54.22699 | -2.43588 | 22210 ft | 395 kts | 336° |
| 2026-04-25 11:28 | 54.25243 | -2.45360 | 22210 ft | 395 kts | 336° |
| 2026-04-25 11:29 | 54.27784 | -2.47135 | 22210 ft | 395 kts | 336° |
| 2026-04-25 11:29 | 54.30334 | -2.48921 | 22219 ft | 400 kts | 336° |
| 2026-04-25 11:29 | 54.32957 | -2.50757 | 22414 ft | 412 kts | 336° |
| 2026-04-25 11:29 | 54.35556 | -2.52570 | 22676 ft | 392 kts | 336° |
| 2026-04-25 11:30 | 54.38052 | -2.54310 | 22943 ft | 384 kts | 336° |
| 2026-04-25 11:30 | 54.40528 | -2.56041 | 23147 ft | 384 kts | 336° |
| 2026-04-25 11:30 | 54.42994 | -2.57773 | 23212 ft | 383 kts | 336° |
| 2026-04-25 11:30 | 54.45462 | -2.59513 | 23212 ft | 383 kts | 336° |
| 2026-04-25 11:31 | 54.47925 | -2.61253 | 23214 ft | 383 kts | 337° |
| 2026-04-25 11:31 | 54.50386 | -2.62996 | 23209 ft | 382 kts | 337° |
| 2026-04-25 11:31 | 54.52846 | -2.64737 | 23209 ft | 382 kts | 337° |
| 2026-04-25 11:31 | 54.55312 | -2.66486 | 23209 ft | 382 kts | 337° |
| 2026-04-25 11:32 | 54.57770 | -2.68234 | 23209 ft | 382 kts | 337° |
| 2026-04-25 11:32 | 54.60231 | -2.69983 | 23211 ft | 384 kts | 336° |
| 2026-04-25 11:32 | 54.62702 | -2.71739 | 23209 ft | 385 kts | 336° |
| 2026-04-25 11:32 | 54.65177 | -2.73501 | 23209 ft | 385 kts | 336° |
| 2026-04-25 11:33 | 54.67650 | -2.75265 | 23209 ft | 385 kts | 336° |
| 2026-04-25 11:33 | 54.70128 | -2.77033 | 23209 ft | 385 kts | 336° |
| 2026-04-25 11:33 | 54.72605 | -2.78800 | 23215 ft | 385 kts | 337° |
| 2026-04-25 11:33 | 54.75082 | -2.80570 | 23215 ft | 385 kts | 337° |
| 2026-04-25 11:34 | 54.77552 | -2.82339 | 23214 ft | 385 kts | 337° |
| 2026-04-25 11:34 | 54.80027 | -2.84114 | 23214 ft | 385 kts | 337° |
| 2026-04-25 11:34 | 54.82499 | -2.85890 | 23215 ft | 385 kts | 337° |
| 2026-04-25 11:34 | 54.84971 | -2.87666 | 23215 ft | 385 kts | 337° |
| 2026-04-25 11:35 | 54.87446 | -2.89444 | 23183 ft | 385 kts | 337° |
| 2026-04-25 11:35 | 54.89917 | -2.91224 | 22932 ft | 384 kts | 337° |
| 2026-04-25 11:35 | 54.92379 | -2.93002 | 22654 ft | 382 kts | 337° |
| 2026-04-25 11:35 | 54.94830 | -2.94778 | 22379 ft | 380 kts | 337° |
| 2026-04-25 11:36 | 54.97234 | -2.96522 | 22119 ft | 378 kts | 337° |
| 2026-04-25 11:36 | 54.99666 | -2.98288 | 21862 ft | 377 kts | 337° |
| 2026-04-25 11:36 | 55.02077 | -3.00041 | 21596 ft | 375 kts | 336° |
| 2026-04-25 11:36 | 55.04477 | -3.01787 | 21340 ft | 373 kts | 337° |
| 2026-04-25 11:37 | 55.06867 | -3.03530 | 21086 ft | 371 kts | 336° |
| 2026-04-25 11:37 | 55.09249 | -3.05270 | 20830 ft | 370 kts | 336° |
| 2026-04-25 11:37 | 55.11619 | -3.07008 | 20579 ft | 368 kts | 336° |
| 2026-04-25 11:37 | 55.13978 | -3.08737 | 20328 ft | 367 kts | 336° |
| 2026-04-25 11:38 | 55.16335 | -3.10460 | 19784 ft | 369 kts | 336° |
| 2026-04-25 11:38 | 55.18734 | -3.12214 | 18928 ft | 378 kts | 336° |
| 2026-04-25 11:38 | 55.21183 | -3.14007 | 18258 ft | 382 kts | 336° |
| 2026-04-25 11:38 | 55.23601 | -3.15780 | 17696 ft | 372 kts | 336° |
| 2026-04-25 11:39 | 55.25961 | -3.17515 | 16980 ft | 362 kts | 336° |
| 2026-04-25 11:39 | 55.28208 | -3.19141 | 16834 ft | 336 kts | 339° |
| 2026-04-25 11:39 | 55.30425 | -3.20064 | 16537 ft | 324 kts | 353° |
| 2026-04-25 11:39 | 55.32633 | -3.20020 | 16263 ft | 321 kts | 4° |
| 2026-04-25 11:40 | 55.34852 | -3.19662 | 15911 ft | 319 kts | 4° |
| 2026-04-25 11:40 | 55.37059 | -3.19313 | 15587 ft | 317 kts | 3° |
| 2026-04-25 11:40 | 55.39235 | -3.18973 | 15089 ft | 312 kts | 4° |
| 2026-04-25 11:40 | 55.41405 | -3.18636 | 14712 ft | 312 kts | 3° |
| 2026-04-25 11:41 | 55.43554 | -3.18299 | 14434 ft | 309 kts | 3° |
| 2026-04-25 11:41 | 55.45688 | -3.17963 | 14129 ft | 307 kts | 4° |
| 2026-04-25 11:41 | 55.47811 | -3.17625 | 13793 ft | 305 kts | 4° |
| 2026-04-25 11:41 | 55.49916 | -3.17291 | 13472 ft | 303 kts | 3° |
| 2026-04-25 11:42 | 55.52009 | -3.16960 | 13123 ft | 301 kts | 3° |
| 2026-04-25 11:42 | 55.54086 | -3.16630 | 12769 ft | 299 kts | 3° |
| 2026-04-25 11:42 | 55.56154 | -3.16303 | 12413 ft | 297 kts | 3° |
| 2026-04-25 11:42 | 55.58210 | -3.15979 | 12050 ft | 296 kts | 3° |
| 2026-04-25 11:43 | 55.60259 | -3.15656 | 11704 ft | 294 kts | 3° |
| 2026-04-25 11:43 | 55.62291 | -3.15340 | 11366 ft | 293 kts | 2° |
| 2026-04-25 11:43 | 55.64313 | -3.15024 | 11010 ft | 291 kts | 2° |
| 2026-04-25 11:43 | 55.66302 | -3.14920 | 10830 ft | 279 kts | 349° |
| 2026-04-25 11:44 | 55.68063 | -3.16080 | 10710 ft | 266 kts | 324° |
| 2026-04-25 11:44 | 55.69335 | -3.18361 | 10483 ft | 259 kts | 301° |
| 2026-04-25 11:44 | 55.69946 | -3.21332 | 10185 ft | 259 kts | 278° |
| 2026-04-25 11:44 | 55.69819 | -3.24495 | 9827 ft | 260 kts | 256° |
| 2026-04-25 11:45 | 55.69267 | -3.27551 | 9427 ft | 260 kts | 254° |
| 2026-04-25 11:45 | 55.68708 | -3.30589 | 9049 ft | 259 kts | 254° |
| 2026-04-25 11:45 | 55.68152 | -3.33618 | 8691 ft | 257 kts | 254° |
| 2026-04-25 11:45 | 55.67600 | -3.36632 | 8293 ft | 256 kts | 253° |
| 2026-04-25 11:46 | 55.67054 | -3.39626 | 7940 ft | 254 kts | 253° |
| 2026-04-25 11:46 | 55.66513 | -3.42591 | 7607 ft | 252 kts | 253° |
| 2026-04-25 11:46 | 55.65976 | -3.45531 | 7222 ft | 251 kts | 253° |
| 2026-04-25 11:46 | 55.65439 | -3.48468 | 6880 ft | 249 kts | 253° |
| 2026-04-25 11:47 | 55.64921 | -3.51388 | 6430 ft | 250 kts | 257° |
| 2026-04-25 11:47 | 55.64847 | -3.54456 | 6041 ft | 248 kts | 279° |
| 2026-04-25 11:47 | 55.65388 | -3.57264 | 5874 ft | 237 kts | 299° |
| 2026-04-25 11:47 | 55.66385 | -3.59492 | 5748 ft | 227 kts | 317° |
| 2026-04-25 11:48 | 55.67547 | -3.61326 | 5636 ft | 222 kts | 316° |
| 2026-04-25 11:48 | 55.68688 | -3.63159 | 5516 ft | 220 kts | 315° |
| 2026-04-25 11:48 | 55.69822 | -3.64929 | 5405 ft | 219 kts | 318° |
| 2026-04-25 11:48 | 55.70981 | -3.66631 | 5295 ft | 212 kts | 319° |
| 2026-04-25 11:49 | 55.72108 | -3.68254 | 5185 ft | 205 kts | 319° |
| 2026-04-25 11:49 | 55.73196 | -3.69811 | 5095 ft | 197 kts | 319° |
| 2026-04-25 11:49 | 55.74248 | -3.71323 | 4986 ft | 193 kts | 320° |
| 2026-04-25 11:49 | 55.75296 | -3.72837 | 4886 ft | 193 kts | 319° |
| 2026-04-25 11:50 | 55.76287 | -3.74436 | 4778 ft | 193 kts | 314° |
| 2026-04-25 11:50 | 55.77308 | -3.75986 | 4681 ft | 194 kts | 328° |
| 2026-04-25 11:50 | 55.78561 | -3.76872 | 4609 ft | 193 kts | 346° |
| 2026-04-25 11:50 | 55.79863 | -3.76932 | 4509 ft | 184 kts | 7° |
| 2026-04-25 11:51 | 55.81046 | -3.76244 | 4395 ft | 176 kts | 26° |
| 2026-04-25 11:51 | 55.81999 | -3.74970 | 4305 ft | 169 kts | 45° |
| 2026-04-25 11:51 | 55.82665 | -3.73326 | 4228 ft | 160 kts | 57° |
| 2026-04-25 11:51 | 55.83244 | -3.71644 | 4134 ft | 158 kts | 57° |
| 2026-04-25 11:52 | 55.83823 | -3.69963 | 4079 ft | 160 kts | 57° |
| 2026-04-25 11:52 | 55.84401 | -3.68283 | 3933 ft | 159 kts | 58° |
| 2026-04-25 11:52 | 55.84974 | -3.66616 | 3750 ft | 157 kts | 58° |
| 2026-04-25 11:52 | 55.85543 | -3.64958 | 3553 ft | 156 kts | 58° |
| 2026-04-25 11:53 | 55.86107 | -3.63314 | 3346 ft | 155 kts | 58° |
| 2026-04-25 11:53 | 55.86669 | -3.61675 | 3135 ft | 155 kts | 59° |
| 2026-04-25 11:53 | 55.87223 | -3.60058 | 2935 ft | 149 kts | 59° |
| 2026-04-25 11:53 | 55.87748 | -3.58526 | 2737 ft | 145 kts | 59° |
| 2026-04-25 11:54 | 55.88266 | -3.57013 | 2540 ft | 141 kts | 60° |
| 2026-04-25 11:54 | 55.88771 | -3.55535 | 2347 ft | 139 kts | 59° |
| 2026-04-25 11:54 | 55.89757 | -3.52649 | 1979 ft | 135 kts | 61° |
| 2026-04-25 11:55 | 55.90246 | -3.51217 | 1781 ft | 132 kts | 61° |
| 2026-04-25 11:55 | 55.90715 | -3.49844 | 1607 ft | 131 kts | 62° |
| 2026-04-25 11:55 | 55.91189 | -3.48452 | 1430 ft | 132 kts | 61° |
| 2026-04-25 11:55 | 55.91666 | -3.47051 | 1235 ft | 133 kts | 60° |
| 2026-04-25 11:56 | 55.92141 | -3.45658 | 1062 ft | 130 kts | 61° |
| 2026-04-25 11:56 | 55.92611 | -3.44278 | 900 ft | 130 kts | 61° |
| 2026-04-25 11:56 | 55.92929 | -3.43344 | 773 ft | 131 kts | 60° |
| 2026-04-25 11:56 | 55.93387 | -3.41971 | 601 ft | 130 kts | 61° |
| 2026-04-25 11:57 | 55.93835 | -3.40561 | 428 ft | 131 kts | 58° |
| 2026-04-25 11:57 | 55.94329 | -3.39227 | 238 ft | 127 kts | 59° |
| 2026-04-25 11:57 | 55.94785 | -3.37920 | 113 ft | 111 kts | 59° |
| 2026-04-25 11:57 | 55.95105 | -3.36956 | 113 ft | 62 kts | 59° |
| 2026-04-25 11:58 | 55.95254 | -3.36494 | 112 ft | 24 kts | 70° |
| 2026-04-25 11:58 | 55.95222 | -3.36369 | 114 ft | 5 kts | 163° |
| 2026-04-25 11:58 | 55.95170 | -3.36327 | 112 ft | 12 kts | 152° |
| 2026-04-25 11:58 | 55.95101 | -3.36377 | 114 ft | 12 kts | 220° |
| 2026-04-25 11:59 | 55.95013 | -3.36419 | 114 ft | 10 kts | 221° |
| 2026-04-25 11:59 | 55.94951 | -3.36582 | 115 ft | 18 kts | 239° |
| 2026-04-25 11:59 | 55.94895 | -3.36743 | 115 ft | 12 kts | 229° |
| 2026-04-25 12:00 | 55.94802 | -3.36672 | 114 ft | 12 kts | 86° |
| 2026-04-25 12:00 | 55.94802 | -3.36634 | 116 ft | 0 kts | 89° |